Ronse, Belgium
Current Conditions -  °F | °C
As of 8:25 AM on Sunday 21 Dec 2014 (Local Time) from EBCV Reporting Station
Overcast Overcast  
Wind Chill: 33°   Ceiling: 3700
Heat Index: 39°   Visibility: 6mi
Dew Point: 37°   Wind: 9mph
Humidity: 93%   Direction: 220°SW
Pressure: 30.48"   Gusts: NA
Location:  50.75°N, 3.6°E
Report Text: EBCV 210725Z AUTO 22008KT 9999 BKN037/// OVC042/// 04/03 Q1032 BLU
Loading
Personal Weather Stations






























Interactive Weather Map New forecast layout! Learn more

10-Day Weather Forecast

Advertisements
Track Severe Weather on mobile